sensor_id;sensor_type;location;lat;lon;timestamp;temperature;humidity
17571;DHT22;8903;52.220;20.978;2023-04-25T00:02:18;13.10;99.90
17571;DHT22;8903;52.220;20.978;2023-04-25T00:04:45;13.00;99.90
17571;DHT22;8903;52.220;20.978;2023-04-25T00:07:14;13.00;99.90
17571;DHT22;8903;52.220;20.978;2023-04-25T00:09:41;13.00;99.90
17571;DHT22;8903;52.220;20.978;2023-04-25T00:12:10;13.00;99.90
17571;DHT22;8903;52.220;20.978;2023-04-25T00:14:37;13.00;99.90
17571;DHT22;8903;52.220;20.978;2023-04-25T00:17:04;13.00;99.90
17571;DHT22;8903;52.220;20.978;2023-04-25T00:19:31;12.90;99.90
17571;DHT22;8903;52.220;20.978;2023-04-25T00:22:00;12.90;99.90
17571;DHT22;8903;52.220;20.978;2023-04-25T00:24:27;12.90;99.90
17571;DHT22;8903;52.220;20.978;2023-04-25T00:26:54;12.90;99.90
17571;DHT22;8903;52.220;20.978;2023-04-25T00:29:22;12.90;99.90
17571;DHT22;8903;52.220;20.978;2023-04-25T00:31:49;12.80;99.90
17571;DHT22;8903;52.220;20.978;2023-04-25T00:34:16;12.80;99.90
17571;DHT22;8903;52.220;20.978;2023-04-25T00:36:43;12.80;99.90
17571;DHT22;8903;52.220;20.978;2023-04-25T00:39:10;12.80;99.90
17571;DHT22;8903;52.220;20.978;2023-04-25T00:41:38;12.80;99.90
17571;DHT22;8903;52.220;20.978;2023-04-25T00:44:08;12.80;99.90
17571;DHT22;8903;52.220;20.978;2023-04-25T00:46:38;12.70;99.90
17571;DHT22;8903;52.220;20.978;2023-04-25T00:49:05;12.70;99.90
17571;DHT22;8903;52.220;20.978;2023-04-25T00:51:33;12.70;99.90
17571;DHT22;8903;52.220;20.978;2023-04-25T00:54:00;12.70;99.90
17571;DHT22;8903;52.220;20.978;2023-04-25T00:56:27;12.60;99.90
17571;DHT22;8903;52.220;20.978;2023-04-25T00:58:55;12.60;99.90
17571;DHT22;8903;52.220;20.978;2023-04-25T01:01:23;12.60;99.90
17571;DHT22;8903;52.220;20.978;2023-04-25T01:03:53;12.60;99.90
17571;DHT22;8903;52.220;20.978;2023-04-25T01:06:21;12.60;99.90
17571;DHT22;8903;52.220;20.978;2023-04-25T01:08:48;12.50;99.90
17571;DHT22;8903;52.220;20.978;2023-04-25T01:11:15;12.50;99.90
17571;DHT22;8903;52.220;20.978;2023-04-25T01:13:43;12.50;99.90
17571;DHT22;8903;52.220;20.978;2023-04-25T01:16:10;12.40;99.90
17571;DHT22;8903;52.220;20.978;2023-04-25T01:18:38;12.40;99.90
17571;DHT22;8903;52.220;20.978;2023-04-25T01:21:09;12.40;99.90
17571;DHT22;8903;52.220;20.978;2023-04-25T01:23:36;12.30;99.90
17571;DHT22;8903;52.220;20.978;2023-04-25T01:26:04;12.30;99.90
17571;DHT22;8903;52.220;20.978;2023-04-25T01:28:33;12.20;99.90
17571;DHT22;8903;52.220;20.978;2023-04-25T01:31:01;12.20;99.90
17571;DHT22;8903;52.220;20.978;2023-04-25T01:33:29;12.20;99.90
17571;DHT22;8903;52.220;20.978;2023-04-25T01:35:56;12.10;99.90
17571;DHT22;8903;52.220;20.978;2023-04-25T01:38:25;12.10;99.90
17571;DHT22;8903;52.220;20.978;2023-04-25T01:40:53;12.10;99.90
17571;DHT22;8903;52.220;20.978;2023-04-25T01:43:21;12.10;99.90
17571;DHT22;8903;52.220;20.978;2023-04-25T01:45:49;12.00;99.90
17571;DHT22;8903;52.220;20.978;2023-04-25T01:48:17;12.10;99.90
17571;DHT22;8903;52.220;20.978;2023-04-25T01:50:45;12.10;99.90
17571;DHT22;8903;52.220;20.978;2023-04-25T01:53:13;12.10;99.90
17571;DHT22;8903;52.220;20.978;2023-04-25T01:55:44;12.10;99.90
17571;DHT22;8903;52.220;20.978;2023-04-25T01:58:14;12.10;99.90
17571;DHT22;8903;52.220;20.978;2023-04-25T02:01:07;12.10;99.90
17571;DHT22;8903;52.220;20.978;2023-04-25T02:03:41;12.20;99.90
17571;DHT22;8903;52.220;20.978;2023-04-25T02:06:17;12.10;99.90
17571;DHT22;8903;52.220;20.978;2023-04-25T02:08:45;12.10;99.90
17571;DHT22;8903;52.220;20.978;2023-04-25T02:11:14;12.00;99.90
17571;DHT22;8903;52.220;20.978;2023-04-25T02:13:47;12.00;99.90
17571;DHT22;8903;52.220;20.978;2023-04-25T02:16:50;12.00;99.90
17571;DHT22;8903;52.220;20.978;2023-04-25T02:19:17;12.00;99.90
17571;DHT22;8903;52.220;20.978;2023-04-25T02:21:46;11.90;99.90
17571;DHT22;8903;52.220;20.978;2023-04-25T02:24:13;11.90;99.90
17571;DHT22;8903;52.220;20.978;2023-04-25T02:26:41;11.90;99.90
17571;DHT22;8903;52.220;20.978;2023-04-25T02:29:09;11.70;99.90
17571;DHT22;8903;52.220;20.978;2023-04-25T02:31:36;11.60;99.90
17571;DHT22;8903;52.220;20.978;2023-04-25T02:34:03;11.60;99.90
17571;DHT22;8903;52.220;20.978;2023-04-25T02:36:30;11.60;99.90
17571;DHT22;8903;52.220;20.978;2023-04-25T02:38:59;11.60;99.90
17571;DHT22;8903;52.220;20.978;2023-04-25T02:41:26;11.60;99.90
17571;DHT22;8903;52.220;20.978;2023-04-25T02:43:56;11.60;99.90
17571;DHT22;8903;52.220;20.978;2023-04-25T02:46:23;11.60;99.90
17571;DHT22;8903;52.220;20.978;2023-04-25T02:48:50;11.60;99.90
17571;DHT22;8903;52.220;20.978;2023-04-25T02:51:17;11.60;99.90
17571;DHT22;8903;52.220;20.978;2023-04-25T02:53:44;11.50;99.90
17571;DHT22;8903;52.220;20.978;2023-04-25T02:56:11;11.50;99.90
17571;DHT22;8903;52.220;20.978;2023-04-25T02:58:38;11.50;99.90
17571;DHT22;8903;52.220;20.978;2023-04-25T03:01:06;11.50;99.90
17571;DHT22;8903;52.220;20.978;2023-04-25T03:03:33;11.40;99.90
17571;DHT22;8903;52.220;20.978;2023-04-25T03:06:00;11.40;99.90
17571;DHT22;8903;52.220;20.978;2023-04-25T03:08:31;11.40;99.90
17571;DHT22;8903;52.220;20.978;2023-04-25T03:11:00;11.40;99.90
17571;DHT22;8903;52.220;20.978;2023-04-25T03:13:28;11.40;99.90
17571;DHT22;8903;52.220;20.978;2023-04-25T03:15:56;11.40;99.90
17571;DHT22;8903;52.220;20.978;2023-04-25T03:18:24;11.40;99.90
17571;DHT22;8903;52.220;20.978;2023-04-25T03:20:54;11.40;99.90
17571;DHT22;8903;52.220;20.978;2023-04-25T03:23:21;11.30;99.90
17571;DHT22;8903;52.220;20.978;2023-04-25T03:25:48;11.30;99.90
17571;DHT22;8903;52.220;20.978;2023-04-25T03:28:15;11.30;99.90
17571;DHT22;8903;52.220;20.978;2023-04-25T03:30:42;11.30;99.90
17571;DHT22;8903;52.220;20.978;2023-04-25T03:33:09;11.40;99.90
17571;DHT22;8903;52.220;20.978;2023-04-25T03:35:38;11.30;99.90
17571;DHT22;8903;52.220;20.978;2023-04-25T03:38:05;11.40;99.90
17571;DHT22;8903;52.220;20.978;2023-04-25T03:40:38;11.40;99.90
17571;DHT22;8903;52.220;20.978;2023-04-25T03:43:16;11.40;99.90
17571;DHT22;8903;52.220;20.978;2023-04-25T03:45:49;11.50;99.90
17571;DHT22;8903;52.220;20.978;2023-04-25T03:48:20;11.50;99.90
17571;DHT22;8903;52.220;20.978;2023-04-25T03:50:51;11.50;99.90
17571;DHT22;8903;52.220;20.978;2023-04-25T03:53:19;11.50;99.90
17571;DHT22;8903;52.220;20.978;2023-04-25T03:56:06;11.50;99.90
17571;DHT22;8903;52.220;20.978;2023-04-25T03:58:36;11.50;99.90
17571;DHT22;8903;52.220;20.978;2023-04-25T04:01:03;11.50;99.90
17571;DHT22;8903;52.220;20.978;2023-04-25T04:03:34;11.60;99.90
17571;DHT22;8903;52.220;20.978;2023-04-25T04:06:03;11.60;99.90
17571;DHT22;8903;52.220;20.978;2023-04-25T04:08:32;11.60;99.90
17571;DHT22;8903;52.220;20.978;2023-04-25T04:11:00;11.60;99.90
17571;DHT22;8903;52.220;20.978;2023-04-25T04:13:27;11.70;99.90
17571;DHT22;8903;52.220;20.978;2023-04-25T04:15:55;11.70;99.90
17571;DHT22;8903;52.220;20.978;2023-04-25T04:18:23;11.70;99.90
17571;DHT22;8903;52.220;20.978;2023-04-25T04:20:50;11.70;99.90
17571;DHT22;8903;52.220;20.978;2023-04-25T04:23:19;11.70;99.90
17571;DHT22;8903;52.220;20.978;2023-04-25T04:25:47;11.70;99.90
17571;DHT22;8903;52.220;20.978;2023-04-25T04:28:27;11.70;99.90
17571;DHT22;8903;52.220;20.978;2023-04-25T04:30:58;11.60;99.90
17571;DHT22;8903;52.220;20.978;2023-04-25T04:33:27;11.70;99.90
17571;DHT22;8903;52.220;20.978;2023-04-25T04:35:58;11.60;99.90
17571;DHT22;8903;52.220;20.978;2023-04-25T04:38:28;11.60;99.90
17571;DHT22;8903;52.220;20.978;2023-04-25T04:40:59;11.60;99.90
17571;DHT22;8903;52.220;20.978;2023-04-25T04:43:49;11.50;99.90
17571;DHT22;8903;52.220;20.978;2023-04-25T04:46:30;11.40;99.90
17571;DHT22;8903;52.220;20.978;2023-04-25T04:49:11;11.50;99.90
17571;DHT22;8903;52.220;20.978;2023-04-25T04:52:14;11.40;99.90
17571;DHT22;8903;52.220;20.978;2023-04-25T04:55:04;11.40;99.90
17571;DHT22;8903;52.220;20.978;2023-04-25T04:57:34;11.30;99.90
17571;DHT22;8903;52.220;20.978;2023-04-25T05:00:30;11.30;99.90
17571;DHT22;8903;52.220;20.978;2023-04-25T05:03:16;11.30;99.90
17571;DHT22;8903;52.220;20.978;2023-04-25T05:06:09;11.30;99.90
17571;DHT22;8903;52.220;20.978;2023-04-25T05:09:11;11.30;99.90
17571;DHT22;8903;52.220;20.978;2023-04-25T05:12:09;11.10;99.90
17571;DHT22;8903;52.220;20.978;2023-04-25T05:15:02;10.90;99.90
17571;DHT22;8903;52.220;20.978;2023-04-25T05:17:29;10.80;99.90
17571;DHT22;8903;52.220;20.978;2023-04-25T05:20:15;10.80;99.90
17571;DHT22;8903;52.220;20.978;2023-04-25T05:23:03;10.70;99.90
17571;DHT22;8903;52.220;20.978;2023-04-25T05:25:42;10.60;99.90
17571;DHT22;8903;52.220;20.978;2023-04-25T05:28:23;10.50;99.90
17571;DHT22;8903;52.220;20.978;2023-04-25T05:30:59;10.50;99.90
17571;DHT22;8903;52.220;20.978;2023-04-25T05:33:49;10.50;99.90
17571;DHT22;8903;52.220;20.978;2023-04-25T05:36:18;10.50;99.90
17571;DHT22;8903;52.220;20.978;2023-04-25T05:38:46;10.50;99.90
17571;DHT22;8903;52.220;20.978;2023-04-25T05:41:32;10.50;99.90
17571;DHT22;8903;52.220;20.978;2023-04-25T05:44:14;10.50;99.90
17571;DHT22;8903;52.220;20.978;2023-04-25T05:46:47;10.30;99.90
17571;DHT22;8903;52.220;20.978;2023-04-25T05:49:23;10.10;99.90
17571;DHT22;8903;52.220;20.978;2023-04-25T05:52:09;10.00;99.90
17571;DHT22;8903;52.220;20.978;2023-04-25T05:54:46;10.00;99.90
17571;DHT22;8903;52.220;20.978;2023-04-25T05:57:20;10.00;99.90
17571;DHT22;8903;52.220;20.978;2023-04-25T05:59:49;9.90;99.90
17571;DHT22;8903;52.220;20.978;2023-04-25T06:02:17;10.00;99.90
17571;DHT22;8903;52.220;20.978;2023-04-25T06:04:44;10.00;99.90
17571;DHT22;8903;52.220;20.978;2023-04-25T06:07:11;9.90;99.90
17571;DHT22;8903;52.220;20.978;2023-04-25T06:09:38;9.90;99.90
17571;DHT22;8903;52.220;20.978;2023-04-25T06:12:06;9.90;99.90
17571;DHT22;8903;52.220;20.978;2023-04-25T06:14:35;9.90;99.90
17571;DHT22;8903;52.220;20.978;2023-04-25T06:17:04;9.90;99.90
17571;DHT22;8903;52.220;20.978;2023-04-25T06:19:34;9.90;99.90
17571;DHT22;8903;52.220;20.978;2023-04-25T06:22:02;9.90;99.90
17571;DHT22;8903;52.220;20.978;2023-04-25T06:24:31;9.80;99.90
17571;DHT22;8903;52.220;20.978;2023-04-25T06:26:58;9.90;99.90
17571;DHT22;8903;52.220;20.978;2023-04-25T06:29:26;9.90;99.90
17571;DHT22;8903;52.220;20.978;2023-04-25T06:31:53;10.00;99.90
17571;DHT22;8903;52.220;20.978;2023-04-25T06:34:22;10.00;99.90
17571;DHT22;8903;52.220;20.978;2023-04-25T06:36:50;10.10;99.90
17571;DHT22;8903;52.220;20.978;2023-04-25T06:39:17;10.00;99.90
17571;DHT22;8903;52.220;20.978;2023-04-25T06:41:45;10.00;99.90
17571;DHT22;8903;52.220;20.978;2023-04-25T06:44:35;10.00;99.90
17571;DHT22;8903;52.220;20.978;2023-04-25T06:47:03;9.80;99.90
17571;DHT22;8903;52.220;20.978;2023-04-25T06:49:32;9.70;99.90
17571;DHT22;8903;52.220;20.978;2023-04-25T06:51:59;9.80;99.90
17571;DHT22;8903;52.220;20.978;2023-04-25T06:54:26;9.50;99.90
17571;DHT22;8903;52.220;20.978;2023-04-25T06:57:02;9.40;99.90
17571;DHT22;8903;52.220;20.978;2023-04-25T06:59:31;9.20;99.90
17571;DHT22;8903;52.220;20.978;2023-04-25T07:01:59;9.30;99.90
17571;DHT22;8903;52.220;20.978;2023-04-25T07:04:26;9.30;99.90
17571;DHT22;8903;52.220;20.978;2023-04-25T07:06:58;9.20;99.90
17571;DHT22;8903;52.220;20.978;2023-04-25T07:09:45;9.30;99.90
17571;DHT22;8903;52.220;20.978;2023-04-25T07:12:12;9.30;99.90
17571;DHT22;8903;52.220;20.978;2023-04-25T07:14:39;9.40;99.90
17571;DHT22;8903;52.220;20.978;2023-04-25T07:17:07;9.40;99.90
17571;DHT22;8903;52.220;20.978;2023-04-25T07:19:34;9.50;99.90
17571;DHT22;8903;52.220;20.978;2023-04-25T07:22:04;9.30;99.90
17571;DHT22;8903;52.220;20.978;2023-04-25T07:24:32;9.40;99.90
17571;DHT22;8903;52.220;20.978;2023-04-25T07:26:59;9.60;99.90
17571;DHT22;8903;52.220;20.978;2023-04-25T07:29:30;9.60;99.90
17571;DHT22;8903;52.220;20.978;2023-04-25T07:31:59;9.80;99.90
17571;DHT22;8903;52.220;20.978;2023-04-25T07:34:26;9.80;99.90
17571;DHT22;8903;52.220;20.978;2023-04-25T07:36:53;9.70;99.90
17571;DHT22;8903;52.220;20.978;2023-04-25T07:39:23;9.60;99.90
17571;DHT22;8903;52.220;20.978;2023-04-25T07:41:50;9.60;99.90
17571;DHT22;8903;52.220;20.978;2023-04-25T07:44:24;9.50;99.90
17571;DHT22;8903;52.220;20.978;2023-04-25T07:46:51;9.50;99.90
17571;DHT22;8903;52.220;20.978;2023-04-25T07:49:18;9.60;99.90
17571;DHT22;8903;52.220;20.978;2023-04-25T07:51:46;9.30;99.90
17571;DHT22;8903;52.220;20.978;2023-04-25T07:54:16;9.40;99.90
17571;DHT22;8903;52.220;20.978;2023-04-25T07:56:53;9.30;99.90
17571;DHT22;8903;52.220;20.978;2023-04-25T07:59:25;9.20;99.90
17571;DHT22;8903;52.220;20.978;2023-04-25T08:01:52;9.20;99.90
17571;DHT22;8903;52.220;20.978;2023-04-25T08:04:22;9.10;99.90
17571;DHT22;8903;52.220;20.978;2023-04-25T08:06:53;9.10;99.90
17571;DHT22;8903;52.220;20.978;2023-04-25T08:09:27;9.10;99.90
17571;DHT22;8903;52.220;20.978;2023-04-25T08:11:57;9.20;99.90
17571;DHT22;8903;52.220;20.978;2023-04-25T08:14:28;9.10;99.90
17571;DHT22;8903;52.220;20.978;2023-04-25T08:17:01;9.30;99.90
17571;DHT22;8903;52.220;20.978;2023-04-25T08:19:31;9.40;99.90
17571;DHT22;8903;52.220;20.978;2023-04-25T08:21:58;9.40;99.90
17571;DHT22;8903;52.220;20.978;2023-04-25T08:24:34;9.60;99.90
17571;DHT22;8903;52.220;20.978;2023-04-25T08:27:03;9.60;99.90
17571;DHT22;8903;52.220;20.978;2023-04-25T08:29:30;9.60;99.90
17571;DHT22;8903;52.220;20.978;2023-04-25T08:31:57;9.60;99.90
17571;DHT22;8903;52.220;20.978;2023-04-25T08:34:24;9.60;99.90
17571;DHT22;8903;52.220;20.978;2023-04-25T08:36:52;9.50;99.90
17571;DHT22;8903;52.220;20.978;2023-04-25T08:39:26;9.40;99.90
17571;DHT22;8903;52.220;20.978;2023-04-25T08:42:19;9.30;99.90
17571;DHT22;8903;52.220;20.978;2023-04-25T08:44:48;9.20;99.90
17571;DHT22;8903;52.220;20.978;2023-04-25T08:47:15;9.10;99.90
17571;DHT22;8903;52.220;20.978;2023-04-25T08:49:49;9.10;99.90
17571;DHT22;8903;52.220;20.978;2023-04-25T08:52:22;9.30;99.90
17571;DHT22;8903;52.220;20.978;2023-04-25T08:54:49;9.30;99.90
17571;DHT22;8903;52.220;20.978;2023-04-25T08:57:21;9.30;99.90
17571;DHT22;8903;52.220;20.978;2023-04-25T08:59:49;9.10;99.90
17571;DHT22;8903;52.220;20.978;2023-04-25T09:02:17;9.00;99.90
17571;DHT22;8903;52.220;20.978;2023-04-25T09:04:49;9.00;99.90
17571;DHT22;8903;52.220;20.978;2023-04-25T09:07:17;9.00;99.90
17571;DHT22;8903;52.220;20.978;2023-04-25T09:09:46;8.90;99.90
17571;DHT22;8903;52.220;20.978;2023-04-25T09:12:19;8.80;99.90
17571;DHT22;8903;52.220;20.978;2023-04-25T09:15:05;8.80;99.90
17571;DHT22;8903;52.220;20.978;2023-04-25T09:17:55;8.80;99.90
17571;DHT22;8903;52.220;20.978;2023-04-25T09:20:23;8.80;99.90
17571;DHT22;8903;52.220;20.978;2023-04-25T09:23:01;8.70;99.90
17571;DHT22;8903;52.220;20.978;2023-04-25T09:25:34;8.70;99.90
17571;DHT22;8903;52.220;20.978;2023-04-25T09:28:06;8.60;99.90
17571;DHT22;8903;52.220;20.978;2023-04-25T09:30:34;8.60;99.90
17571;DHT22;8903;52.220;20.978;2023-04-25T09:33:29;8.60;99.90
17571;DHT22;8903;52.220;20.978;2023-04-25T09:36:02;8.70;99.90
17571;DHT22;8903;52.220;20.978;2023-04-25T09:39:02;8.90;99.90
17571;DHT22;8903;52.220;20.978;2023-04-25T09:41:32;9.00;99.90
17571;DHT22;8903;52.220;20.978;2023-04-25T09:44:05;9.00;99.90
17571;DHT22;8903;52.220;20.978;2023-04-25T09:46:36;9.00;99.90
17571;DHT22;8903;52.220;20.978;2023-04-25T09:49:06;9.00;99.90
17571;DHT22;8903;52.220;20.978;2023-04-25T09:51:54;9.00;99.90
17571;DHT22;8903;52.220;20.978;2023-04-25T09:54:22;8.80;99.90
17571;DHT22;8903;52.220;20.978;2023-04-25T09:56:54;8.70;99.90
17571;DHT22;8903;52.220;20.978;2023-04-25T09:59:22;8.70;99.90
17571;DHT22;8903;52.220;20.978;2023-04-25T10:01:50;8.80;99.90
17571;DHT22;8903;52.220;20.978;2023-04-25T10:04:27;8.80;99.90
17571;DHT22;8903;52.220;20.978;2023-04-25T10:06:59;8.90;99.90
17571;DHT22;8903;52.220;20.978;2023-04-25T10:09:29;9.10;99.90
17571;DHT22;8903;52.220;20.978;2023-04-25T10:11:59;9.00;99.90
17571;DHT22;8903;52.220;20.978;2023-04-25T10:14:29;8.90;99.90
17571;DHT22;8903;52.220;20.978;2023-04-25T10:16:57;8.80;99.90
17571;DHT22;8903;52.220;20.978;2023-04-25T10:19:25;8.80;99.90
17571;DHT22;8903;52.220;20.978;2023-04-25T10:21:55;8.80;99.90
17571;DHT22;8903;52.220;20.978;2023-04-25T10:24:24;8.70;99.90
17571;DHT22;8903;52.220;20.978;2023-04-25T10:26:52;8.70;99.90
17571;DHT22;8903;52.220;20.978;2023-04-25T10:29:22;8.80;99.90
17571;DHT22;8903;52.220;20.978;2023-04-25T10:31:51;8.80;99.90
17571;DHT22;8903;52.220;20.978;2023-04-25T10:34:19;8.80;99.90
17571;DHT22;8903;52.220;20.978;2023-04-25T10:36:51;8.70;99.90
17571;DHT22;8903;52.220;20.978;2023-04-25T10:39:22;8.80;99.90
17571;DHT22;8903;52.220;20.978;2023-04-25T10:41:55;8.80;99.90
17571;DHT22;8903;52.220;20.978;2023-04-25T10:44:22;8.80;99.90
17571;DHT22;8903;52.220;20.978;2023-04-25T10:46:51;8.80;99.90
17571;DHT22;8903;52.220;20.978;2023-04-25T10:49:32;8.90;99.90
17571;DHT22;8903;52.220;20.978;2023-04-25T10:52:18;8.90;99.90
17571;DHT22;8903;52.220;20.978;2023-04-25T10:54:47;9.00;99.90
17571;DHT22;8903;52.220;20.978;2023-04-25T10:57:36;9.00;99.90
17571;DHT22;8903;52.220;20.978;2023-04-25T11:00:09;9.10;99.90
17571;DHT22;8903;52.220;20.978;2023-04-25T11:02:41;9.00;99.90
17571;DHT22;8903;52.220;20.978;2023-04-25T11:05:09;9.00;99.90
17571;DHT22;8903;52.220;20.978;2023-04-25T11:07:42;9.00;99.90
17571;DHT22;8903;52.220;20.978;2023-04-25T11:10:11;8.90;99.90
17571;DHT22;8903;52.220;20.978;2023-04-25T11:12:38;8.90;99.90
17571;DHT22;8903;52.220;20.978;2023-04-25T11:15:06;8.80;99.90
17571;DHT22;8903;52.220;20.978;2023-04-25T11:17:34;8.80;99.90
17571;DHT22;8903;52.220;20.978;2023-04-25T11:20:03;8.90;99.90
17571;DHT22;8903;52.220;20.978;2023-04-25T11:22:34;9.00;99.90
17571;DHT22;8903;52.220;20.978;2023-04-25T11:25:05;9.10;99.90
17571;DHT22;8903;52.220;20.978;2023-04-25T11:27:32;9.10;99.90
17571;DHT22;8903;52.220;20.978;2023-04-25T11:30:10;9.00;99.90
17571;DHT22;8903;52.220;20.978;2023-04-25T11:32:39;9.00;99.90
17571;DHT22;8903;52.220;20.978;2023-04-25T11:35:08;8.90;99.90
17571;DHT22;8903;52.220;20.978;2023-04-25T11:37:35;9.00;99.90
17571;DHT22;8903;52.220;20.978;2023-04-25T11:40:03;9.00;99.90
17571;DHT22;8903;52.220;20.978;2023-04-25T11:42:32;9.00;99.90
17571;DHT22;8903;52.220;20.978;2023-04-25T11:44:59;9.00;99.90
17571;DHT22;8903;52.220;20.978;2023-04-25T11:47:30;9.20;99.90
17571;DHT22;8903;52.220;20.978;2023-04-25T11:49:58;9.20;99.90
17571;DHT22;8903;52.220;20.978;2023-04-25T11:52:37;9.40;99.90
17571;DHT22;8903;52.220;20.978;2023-04-25T11:55:06;9.30;99.90
17571;DHT22;8903;52.220;20.978;2023-04-25T11:57:33;9.30;99.90
17571;DHT22;8903;52.220;20.978;2023-04-25T12:00:11;9.30;99.90
17571;DHT22;8903;52.220;20.978;2023-04-25T12:02:43;9.20;99.90
17571;DHT22;8903;52.220;20.978;2023-04-25T12:05:12;9.20;99.90
17571;DHT22;8903;52.220;20.978;2023-04-25T12:07:40;9.20;99.90
17571;DHT22;8903;52.220;20.978;2023-04-25T12:10:10;9.30;99.90
17571;DHT22;8903;52.220;20.978;2023-04-25T12:12:38;9.30;99.90
17571;DHT22;8903;52.220;20.978;2023-04-25T12:15:09;9.20;99.90
17571;DHT22;8903;52.220;20.978;2023-04-25T12:17:37;9.20;99.90
17571;DHT22;8903;52.220;20.978;2023-04-25T12:20:08;9.30;99.90
17571;DHT22;8903;52.220;20.978;2023-04-25T12:22:36;9.30;99.90
17571;DHT22;8903;52.220;20.978;2023-04-25T12:25:05;9.50;99.90
17571;DHT22;8903;52.220;20.978;2023-04-25T12:27:33;9.50;99.90
17571;DHT22;8903;52.220;20.978;2023-04-25T12:30:01;9.40;99.90
17571;DHT22;8903;52.220;20.978;2023-04-25T12:32:29;9.40;99.90
17571;DHT22;8903;52.220;20.978;2023-04-25T12:34:56;9.40;99.90
17571;DHT22;8903;52.220;20.978;2023-04-25T12:37:23;9.40;99.90
17571;DHT22;8903;52.220;20.978;2023-04-25T12:39:50;9.50;99.90
17571;DHT22;8903;52.220;20.978;2023-04-25T12:42:18;9.40;99.90
17571;DHT22;8903;52.220;20.978;2023-04-25T12:44:45;9.40;99.90
17571;DHT22;8903;52.220;20.978;2023-04-25T12:47:13;9.50;99.90
17571;DHT22;8903;52.220;20.978;2023-04-25T12:49:40;9.40;99.90
17571;DHT22;8903;52.220;20.978;2023-04-25T12:52:07;9.30;99.90
17571;DHT22;8903;52.220;20.978;2023-04-25T12:54:34;9.30;99.90
17571;DHT22;8903;52.220;20.978;2023-04-25T12:57:01;9.20;99.90
17571;DHT22;8903;52.220;20.978;2023-04-25T12:59:30;9.20;99.90
17571;DHT22;8903;52.220;20.978;2023-04-25T13:01:57;9.20;99.90
17571;DHT22;8903;52.220;20.978;2023-04-25T13:04:24;9.10;99.90
17571;DHT22;8903;52.220;20.978;2023-04-25T13:06:51;9.10;99.90
17571;DHT22;8903;52.220;20.978;2023-04-25T13:09:18;9.10;99.90
17571;DHT22;8903;52.220;20.978;2023-04-25T13:11:46;9.00;99.90
17571;DHT22;8903;52.220;20.978;2023-04-25T13:14:13;9.10;99.90
17571;DHT22;8903;52.220;20.978;2023-04-25T13:16:42;9.20;99.90
17571;DHT22;8903;52.220;20.978;2023-04-25T13:19:09;9.20;99.90
17571;DHT22;8903;52.220;20.978;2023-04-25T13:21:37;9.30;99.90
17571;DHT22;8903;52.220;20.978;2023-04-25T13:24:04;9.50;99.90
17571;DHT22;8903;52.220;20.978;2023-04-25T13:26:31;9.60;99.90
17571;DHT22;8903;52.220;20.978;2023-04-25T13:28:58;9.70;99.90
17571;DHT22;8903;52.220;20.978;2023-04-25T13:31:26;9.90;99.90
17571;DHT22;8903;52.220;20.978;2023-04-25T13:33:54;9.90;99.90
17571;DHT22;8903;52.220;20.978;2023-04-25T13:36:21;10.00;99.90
17571;DHT22;8903;52.220;20.978;2023-04-25T13:38:48;10.00;99.90
17571;DHT22;8903;52.220;20.978;2023-04-25T13:41:15;10.10;99.90
17571;DHT22;8903;52.220;20.978;2023-04-25T13:43:45;10.00;99.90
17571;DHT22;8903;52.220;20.978;2023-04-25T13:46:14;9.90;99.90
17571;DHT22;8903;52.220;20.978;2023-04-25T13:48:41;9.80;99.90
17571;DHT22;8903;52.220;20.978;2023-04-25T13:51:14;9.70;99.90
17571;DHT22;8903;52.220;20.978;2023-04-25T13:53:43;9.70;99.90
17571;DHT22;8903;52.220;20.978;2023-04-25T13:56:11;9.70;99.90
17571;DHT22;8903;52.220;20.978;2023-04-25T13:58:38;9.70;99.90
17571;DHT22;8903;52.220;20.978;2023-04-25T14:01:05;9.80;99.90
17571;DHT22;8903;52.220;20.978;2023-04-25T14:03:32;9.90;99.90
17571;DHT22;8903;52.220;20.978;2023-04-25T14:05:59;9.80;99.90
17571;DHT22;8903;52.220;20.978;2023-04-25T14:08:27;9.70;99.90
17571;DHT22;8903;52.220;20.978;2023-04-25T14:10:54;9.90;99.90
17571;DHT22;8903;52.220;20.978;2023-04-25T14:13:21;10.00;99.90
17571;DHT22;8903;52.220;20.978;2023-04-25T14:15:49;9.90;99.90
17571;DHT22;8903;52.220;20.978;2023-04-25T14:18:17;9.70;99.90
17571;DHT22;8903;52.220;20.978;2023-04-25T14:20:44;9.70;99.90
17571;DHT22;8903;52.220;20.978;2023-04-25T14:23:11;9.80;99.90
17571;DHT22;8903;52.220;20.978;2023-04-25T14:25:40;9.70;99.90
17571;DHT22;8903;52.220;20.978;2023-04-25T14:28:08;9.80;99.90
17571;DHT22;8903;52.220;20.978;2023-04-25T14:30:34;9.60;99.90
17571;DHT22;8903;52.220;20.978;2023-04-25T14:33:01;9.60;99.90
17571;DHT22;8903;52.220;20.978;2023-04-25T14:35:29;9.50;99.90
17571;DHT22;8903;52.220;20.978;2023-04-25T14:37:56;9.60;99.90
17571;DHT22;8903;52.220;20.978;2023-04-25T14:40:23;9.60;99.90
17571;DHT22;8903;52.220;20.978;2023-04-25T14:42:51;9.40;99.90
17571;DHT22;8903;52.220;20.978;2023-04-25T14:45:18;9.50;99.90
17571;DHT22;8903;52.220;20.978;2023-04-25T14:47:45;9.50;99.90
17571;DHT22;8903;52.220;20.978;2023-04-25T14:50:12;9.50;99.90
17571;DHT22;8903;52.220;20.978;2023-04-25T14:52:39;9.50;99.90
17571;DHT22;8903;52.220;20.978;2023-04-25T14:55:07;9.60;99.90
17571;DHT22;8903;52.220;20.978;2023-04-25T14:57:35;9.60;99.90
17571;DHT22;8903;52.220;20.978;2023-04-25T15:00:04;9.40;99.90
17571;DHT22;8903;52.220;20.978;2023-04-25T15:02:34;9.50;99.90
17571;DHT22;8903;52.220;20.978;2023-04-25T15:05:01;9.60;99.90
17571;DHT22;8903;52.220;20.978;2023-04-25T15:07:28;9.70;99.90
17571;DHT22;8903;52.220;20.978;2023-04-25T15:09:56;9.70;99.90
17571;DHT22;8903;52.220;20.978;2023-04-25T15:12:23;9.70;99.90
17571;DHT22;8903;52.220;20.978;2023-04-25T15:14:51;9.50;99.90
17571;DHT22;8903;52.220;20.978;2023-04-25T15:17:20;9.30;99.90
17571;DHT22;8903;52.220;20.978;2023-04-25T15:19:47;9.30;99.90
17571;DHT22;8903;52.220;20.978;2023-04-25T15:22:14;9.20;99.90
17571;DHT22;8903;52.220;20.978;2023-04-25T15:24:41;9.10;99.90
17571;DHT22;8903;52.220;20.978;2023-04-25T15:27:08;9.00;99.90
17571;DHT22;8903;52.220;20.978;2023-04-25T15:29:34;9.10;99.90
17571;DHT22;8903;52.220;20.978;2023-04-25T15:32:02;9.00;99.90
17571;DHT22;8903;52.220;20.978;2023-04-25T15:34:31;8.90;99.90
17571;DHT22;8903;52.220;20.978;2023-04-25T15:36:57;9.00;99.90
17571;DHT22;8903;52.220;20.978;2023-04-25T15:39:24;8.90;99.90
17571;DHT22;8903;52.220;20.978;2023-04-25T15:41:51;8.90;99.90
17571;DHT22;8903;52.220;20.978;2023-04-25T15:44:18;8.80;99.90
17571;DHT22;8903;52.220;20.978;2023-04-25T15:46:45;8.80;99.90
17571;DHT22;8903;52.220;20.978;2023-04-25T15:49:12;8.70;99.90
17571;DHT22;8903;52.220;20.978;2023-04-25T15:51:41;8.60;99.90
17571;DHT22;8903;52.220;20.978;2023-04-25T15:54:08;8.50;99.90
17571;DHT22;8903;52.220;20.978;2023-04-25T15:56:35;8.50;99.90
17571;DHT22;8903;52.220;20.978;2023-04-25T15:59:02;8.50;99.90
17571;DHT22;8903;52.220;20.978;2023-04-25T16:01:29;8.50;99.90